createdAt,value
2019-04-03T00:00:44.205Z,61.60
2019-04-03T00:01:44.198Z,62.73
2019-04-03T00:02:44.180Z,63.03
2019-04-03T00:03:44.188Z,61.40
2019-04-03T00:04:44.157Z,61.80
2019-04-03T00:05:44.190Z,61.70
2019-04-03T00:06:44.137Z,61.57
2019-04-03T00:07:44.123Z,61.26
2019-04-03T00:08:44.127Z,61.80
2019-04-03T00:09:44.107Z,61.40
2019-04-03T00:10:44.100Z,61.77
2019-04-03T00:11:44.138Z,61.80
2019-04-03T00:12:44.074Z,62.01
2019-04-03T00:13:44.062Z,62.01
2019-04-03T00:14:44.075Z,61.67
2019-04-03T00:15:44.770Z,61.80
2019-04-03T00:16:45.492Z,61.91
2019-04-03T00:17:45.947Z,61.67
2019-04-03T00:18:46.809Z,61.36
2019-04-03T00:19:44.001Z,61.67
2019-04-03T00:20:43.995Z,61.47
2019-04-03T00:21:43.975Z,61.57
2019-04-03T00:22:46.099Z,61.57
2019-04-03T00:23:43.956Z,61.47
2019-04-03T00:24:43.952Z,62.08
2019-04-03T00:25:43.938Z,61.88
2019-04-03T00:26:43.946Z,61.57
2019-04-03T00:27:43.913Z,62.29
2019-04-03T00:28:43.901Z,61.77
2019-04-03T00:29:43.974Z,62.29
2019-04-03T00:30:43.880Z,61.77
2019-04-03T00:31:43.881Z,62.18
2019-04-03T00:32:43.859Z,61.77
2019-04-03T00:33:43.845Z,61.67
2019-04-03T00:34:43.835Z,62.08
2019-04-03T00:35:43.833Z,61.98
2019-04-03T00:36:43.818Z,61.98
2019-04-03T00:37:43.913Z,62.29
2019-04-03T00:38:43.798Z,62.29
2019-04-03T00:39:43.785Z,62.18
2019-04-03T00:40:43.827Z,62.18
2019-04-03T00:41:43.769Z,62.59
2019-04-03T00:42:43.755Z,61.98
2019-04-03T00:43:43.757Z,62.49
2019-04-03T00:44:43.739Z,62.93
2019-04-03T00:45:43.723Z,62.39
2019-04-03T00:46:43.777Z,62.93
2019-04-03T00:47:43.703Z,62.93
2019-04-03T00:48:43.697Z,62.73
2019-04-03T00:49:43.750Z,62.52
2019-04-03T00:50:43.671Z,62.73
2019-04-03T00:51:43.669Z,62.62
2019-04-03T00:52:43.650Z,62.49
2019-04-03T00:53:43.645Z,63.13
2019-04-03T00:54:43.635Z,62.62
2019-04-03T00:55:43.657Z,62.62
2019-04-03T00:56:43.605Z,62.73
2019-04-03T00:57:43.596Z,63.34
2019-04-03T00:58:43.596Z,63.54
2019-04-03T00:59:43.576Z,63.65
2019-04-03T01:00:43.568Z,62.62
2019-04-03T01:01:43.556Z,63.34
2019-04-03T01:02:43.545Z,63.44
2019-04-03T01:03:43.669Z,63.34
2019-04-03T01:04:43.527Z,63.34
2019-04-03T01:05:43.521Z,63.06
2019-04-03T01:06:43.497Z,63.06
2019-04-03T01:07:43.487Z,63.37
2019-04-03T01:08:43.478Z,63.37
2019-04-03T01:09:43.562Z,63.57
2019-04-03T01:10:43.651Z,64.06
2019-04-03T01:11:43.450Z,63.98
2019-04-03T01:12:43.433Z,63.78
2019-04-03T01:13:43.568Z,64.29
2019-04-03T01:14:43.462Z,63.68
2019-04-03T01:15:43.414Z,63.78
2019-04-03T01:16:43.394Z,63.68
2019-04-03T01:17:43.390Z,64.18
2019-04-03T01:18:43.374Z,63.98
2019-04-03T01:19:43.502Z,64.09
2019-04-03T01:20:43.357Z,64.62
2019-04-03T01:21:43.340Z,64.50
2019-04-03T01:22:43.335Z,64.50
2019-04-03T01:23:43.339Z,64.29
2019-04-03T01:24:43.306Z,64.50
2019-04-03T01:25:43.297Z,64.80
2019-04-03T01:26:43.314Z,64.60
2019-04-03T01:27:43.282Z,64.32
2019-04-03T01:28:43.268Z,64.62
2019-04-03T01:29:43.320Z,64.94
2019-04-03T01:30:44.236Z,65.04
2019-04-03T01:31:44.763Z,65.24
2019-04-03T01:32:43.227Z,65.34
2019-04-03T01:33:43.207Z,65.04
2019-04-03T01:34:43.205Z,65.04
2019-04-03T01:35:43.188Z,65.65
2019-04-03T01:36:43.174Z,65.75
2019-04-03T01:37:43.295Z,65.34
2019-04-03T01:38:43.162Z,65.34
2019-04-03T01:39:43.151Z,65.14
2019-04-03T01:40:43.135Z,64.94
2019-04-03T01:41:43.132Z,65.04
2019-04-03T01:42:43.126Z,65.24
2019-04-03T01:43:43.268Z,65.45
2019-04-03T01:44:43.094Z,65.04
2019-04-03T01:45:43.084Z,65.34
2019-04-03T01:46:43.070Z,65.07
2019-04-03T01:47:43.064Z,65.37
2019-04-03T01:48:43.046Z,66.50
2019-04-03T01:49:43.048Z,66.19
2019-04-03T01:50:43.146Z,66.40
2019-04-03T01:51:43.026Z,66.60
2019-04-03T01:52:43.009Z,66.60
2019-04-03T01:53:43.001Z,66.60
2019-04-03T01:54:42.985Z,66.60
2019-04-03T01:55:42.980Z,66.60
2019-04-03T01:56:42.967Z,66.33
2019-04-03T01:57:42.961Z,66.94
2019-04-03T01:58:42.938Z,67.05
2019-04-03T01:59:42.937Z,66.84
2019-04-03T02:00:42.921Z,67.14
2019-04-03T02:01:42.914Z,66.74
2019-04-03T02:02:42.908Z,66.84
2019-04-03T02:03:42.890Z,66.91
2019-04-03T02:04:43.077Z,66.60
2019-04-03T02:05:43.827Z,66.71
2019-04-03T02:06:43.681Z,66.60
2019-04-03T02:07:44.674Z,66.40
2019-04-03T02:08:44.266Z,66.81
2019-04-03T02:09:42.826Z,66.91
2019-04-03T02:10:42.817Z,66.60
2019-04-03T02:11:42.808Z,66.60
2019-04-03T02:12:43.002Z,66.71
2019-04-03T02:13:42.784Z,66.91
2019-04-03T02:14:42.774Z,66.81
2019-04-03T02:15:42.770Z,66.94
2019-04-03T02:16:42.783Z,66.84
2019-04-03T02:17:42.739Z,66.60
2019-04-03T02:18:42.814Z,66.50
2019-04-03T02:19:42.727Z,66.81
2019-04-03T02:20:42.724Z,66.91
2019-04-03T02:21:42.698Z,66.81
2019-04-03T02:22:42.684Z,66.91
2019-04-03T02:23:42.677Z,66.60
2019-04-03T02:24:42.667Z,66.81
2019-04-03T02:25:42.669Z,66.84
2019-04-03T02:26:42.830Z,66.50
2019-04-03T02:27:42.635Z,66.50
2019-04-03T02:28:42.636Z,66.50
2019-04-03T02:29:42.614Z,66.60
2019-04-03T02:30:45.344Z,66.50
2019-04-03T02:31:43.202Z,66.91
2019-04-03T02:32:42.585Z,66.60
2019-04-03T02:33:42.682Z,66.71
2019-04-03T02:34:42.561Z,66.60
2019-04-03T02:35:42.562Z,66.94
2019-04-03T02:36:44.325Z,66.43
2019-04-03T02:37:42.543Z,66.60
2019-04-03T02:38:42.517Z,66.71
2019-04-03T02:39:42.512Z,66.60
2019-04-03T02:40:42.501Z,66.74
2019-04-03T02:41:42.493Z,66.60
2019-04-03T02:42:42.639Z,67.11
2019-04-03T02:43:45.580Z,66.91
2019-04-03T02:44:42.456Z,66.81
2019-04-03T02:45:42.449Z,67.05
2019-04-03T02:46:42.440Z,66.84
2019-04-03T02:47:42.434Z,67.14
2019-04-03T02:48:42.424Z,66.84
2019-04-03T02:49:43.622Z,67.56
2019-04-03T02:50:46.514Z,66.84
2019-04-03T02:51:43.702Z,67.66
2019-04-03T02:52:42.377Z,67.25
2019-04-03T02:53:42.373Z,67.35
2019-04-03T02:54:42.353Z,67.35
2019-04-03T02:55:42.348Z,67.14
2019-04-03T02:56:44.540Z,67.25
2019-04-03T02:57:42.326Z,67.14
2019-04-03T02:58:42.487Z,67.14
2019-04-03T02:59:42.300Z,67.05
2019-04-03T03:00:42.370Z,67.35
2019-04-03T03:01:42.277Z,67.14
2019-04-03T03:02:45.145Z,67.35
2019-04-03T03:03:42.253Z,67.05
2019-04-03T03:04:42.247Z,67.35
2019-04-03T03:05:42.236Z,67.56
2019-04-03T03:06:42.321Z,67.25
2019-04-03T03:07:42.215Z,67.35
2019-04-03T03:08:42.744Z,67.25
2019-04-03T03:09:45.584Z,67.25
2019-04-03T03:10:42.275Z,68.00
2019-04-03T03:11:42.174Z,67.35
2019-04-03T03:12:42.159Z,67.05
2019-04-03T03:13:42.255Z,67.56
2019-04-03T03:14:42.138Z,67.05
2019-04-03T03:15:43.916Z,67.05
2019-04-03T03:16:42.120Z,66.84
2019-04-03T03:17:42.105Z,66.94
2019-04-03T03:18:42.092Z,67.86
2019-04-03T03:19:42.086Z,67.97
2019-04-03T03:20:42.071Z,67.66
2019-04-03T03:21:44.722Z,67.86
2019-04-03T03:22:42.080Z,68.00
2019-04-03T03:23:42.051Z,68.17
2019-04-03T03:24:42.030Z,68.00
2019-04-03T03:25:42.332Z,67.56
2019-04-03T03:26:42.010Z,67.90
2019-04-03T03:27:42.650Z,68.10
2019-04-03T03:28:45.678Z,67.97
2019-04-03T03:29:41.976Z,68.07
2019-04-03T03:30:53.402Z,68.41
2019-04-03T03:32:06.348Z,68.10
2019-04-03T03:32:43.231Z,67.90
2019-04-03T03:33:42.609Z,68.27
2019-04-03T03:34:55.526Z,68.30
2019-04-03T03:35:46.911Z,68.38
2019-04-03T03:36:43.515Z,68.41
2019-04-03T03:37:41.888Z,68.30
2019-04-03T03:38:41.873Z,68.38
2019-04-03T03:39:43.583Z,68.10
2019-04-03T03:40:41.851Z,68.41
2019-04-03T03:41:41.881Z,68.30
2019-04-03T03:42:41.836Z,68.51
2019-04-03T03:43:41.829Z,68.72
2019-04-03T03:44:45.520Z,68.30
2019-04-03T03:45:41.808Z,68.51
2019-04-03T03:46:41.796Z,68.41
2019-04-03T03:47:42.434Z,68.51
2019-04-03T03:48:43.990Z,68.51
2019-04-03T03:49:41.762Z,68.51
2019-04-03T03:50:41.757Z,68.62
2019-04-03T03:51:41.747Z,68.72
2019-04-03T03:52:41.888Z,68.72
2019-04-03T03:53:44.936Z,68.62
2019-04-03T03:54:41.709Z,68.62
2019-04-03T03:55:42.033Z,68.62
2019-04-03T03:56:41.686Z,69.26
2019-04-03T03:57:41.867Z,69.33
2019-04-03T03:58:44.713Z,69.06
2019-04-03T03:59:41.825Z,69.16
2019-04-03T04:00:41.966Z,69.06
2019-04-03T04:01:41.685Z,69.06
2019-04-03T04:02:44.388Z,69.26
2019-04-03T04:03:42.195Z,69.16
2019-04-03T04:04:41.743Z,69.06
2019-04-03T04:05:41.747Z,69.57
2019-04-03T04:06:41.728Z,69.47
2019-04-03T04:07:41.599Z,69.57
2019-04-03T04:08:44.272Z,69.37
2019-04-03T04:09:41.572Z,69.16
2019-04-03T04:10:41.534Z,69.16
2019-04-03T04:11:41.521Z,69.57
2019-04-03T04:12:42.032Z,69.67
2019-04-03T04:13:41.512Z,69.57
2019-04-03T04:14:41.632Z,69.57
2019-04-03T04:15:41.483Z,69.78
2019-04-03T04:16:41.489Z,69.98
2019-04-03T04:17:41.474Z,69.47
2019-04-03T04:18:41.561Z,69.88
2019-04-03T04:19:41.446Z,70.18
2019-04-03T04:20:41.431Z,69.78
2019-04-03T04:21:44.025Z,69.67
2019-04-03T04:22:41.741Z,69.78
2019-04-03T04:23:41.407Z,69.57
2019-04-03T04:24:41.619Z,69.78
2019-04-03T04:25:43.871Z,69.88
2019-04-03T04:26:41.370Z,69.98
2019-04-03T04:27:41.352Z,69.37
2019-04-03T04:28:41.344Z,69.67
2019-04-03T04:29:42.173Z,69.57
2019-04-03T04:30:42.496Z,69.88
2019-04-03T04:31:43.337Z,69.57
2019-04-03T04:32:41.324Z,69.98
2019-04-03T04:33:41.286Z,69.57
2019-04-03T04:34:41.278Z,70.08
2019-04-03T04:35:41.271Z,69.67
2019-04-03T04:36:41.259Z,69.67
2019-04-03T04:37:41.246Z,69.67
2019-04-03T04:38:41.240Z,69.88
2019-04-03T04:39:41.226Z,69.98
2019-04-03T04:40:41.223Z,69.67
2019-04-03T04:41:41.397Z,70.18
2019-04-03T04:42:41.208Z,69.98
2019-04-03T04:43:41.183Z,69.67
2019-04-03T04:44:41.580Z,69.98
2019-04-03T04:45:42.721Z,69.88
2019-04-03T04:46:43.605Z,70.39
2019-04-03T04:47:41.206Z,69.78
2019-04-03T04:48:41.122Z,69.78
2019-04-03T04:49:41.130Z,69.78
2019-04-03T04:50:41.100Z,69.98
2019-04-03T04:51:41.098Z,70.29
2019-04-03T04:52:41.211Z,69.88
2019-04-03T04:53:41.372Z,70.29
2019-04-03T04:54:42.900Z,69.67
2019-04-03T04:55:41.047Z,70.39
2019-04-03T04:56:41.048Z,70.08
2019-04-03T04:57:41.374Z,69.67
2019-04-03T04:58:43.038Z,69.78
2019-04-03T04:59:41.273Z,69.88
2019-04-03T05:00:41.001Z,69.67
2019-04-03T05:01:40.989Z,70.50
2019-04-03T05:02:40.978Z,69.78
2019-04-03T05:03:40.967Z,69.88
2019-04-03T05:04:40.977Z,69.57
2019-04-03T05:05:40.943Z,69.67
2019-04-03T05:06:40.936Z,69.67
2019-04-03T05:07:40.926Z,69.88
2019-04-03T05:08:40.922Z,70.15
2019-04-03T05:09:40.909Z,69.43
2019-04-03T05:10:40.913Z,69.88
2019-04-03T05:11:40.884Z,70.08
2019-04-03T05:12:44.733Z,69.98
2019-04-03T05:13:40.862Z,69.64
2019-04-03T05:14:40.861Z,70.15
2019-04-03T05:15:40.847Z,69.98
2019-04-03T05:16:41.184Z,69.78
2019-04-03T05:17:40.820Z,69.64
2019-04-03T05:18:40.816Z,69.74
2019-04-03T05:19:40.800Z,69.64
2019-04-03T05:20:40.873Z,69.64
2019-04-03T05:21:40.912Z,69.74
2019-04-03T05:22:40.773Z,69.67
2019-04-03T05:23:40.760Z,70.05
2019-04-03T05:24:40.744Z,70.08
2019-04-03T05:25:40.744Z,70.08
2019-04-03T05:26:40.719Z,70.08
2019-04-03T05:27:40.731Z,69.64
2019-04-03T05:28:53.268Z,70.29
2019-04-03T05:29:41.724Z,70.05
2019-04-03T05:30:40.880Z,69.84
2019-04-03T05:31:40.680Z,69.74
2019-04-03T05:32:41.169Z,69.64
2019-04-03T05:33:42.205Z,69.64
2019-04-03T05:34:43.523Z,69.43
2019-04-03T05:35:40.630Z,69.54
2019-04-03T05:36:40.616Z,69.64
2019-04-03T05:37:40.605Z,69.64
2019-04-03T05:38:40.788Z,69.64
2019-04-03T05:39:40.586Z,69.74
2019-04-03T05:40:40.574Z,69.74
2019-04-03T05:41:40.563Z,69.84
2019-04-03T05:42:40.614Z,69.33
2019-04-03T05:43:40.538Z,69.43
2019-04-03T05:44:40.531Z,69.33
2019-04-03T05:45:41.817Z,69.51
2019-04-03T05:46:40.507Z,69.54
2019-04-03T05:47:40.495Z,69.10
2019-04-03T05:48:40.493Z,69.33
2019-04-03T05:49:40.475Z,69.30
2019-04-03T05:50:40.469Z,69.61
2019-04-03T05:51:40.457Z,69.30
2019-04-03T05:52:40.517Z,68.79
2019-04-03T05:53:40.435Z,68.62
2019-04-03T05:54:40.423Z,68.79
2019-04-03T05:55:41.438Z,68.27
2019-04-03T05:56:42.480Z,68.27
2019-04-03T05:57:40.389Z,68.27
2019-04-03T05:58:40.381Z,68.27
2019-04-03T05:59:43.303Z,68.68
2019-04-03T06:00:40.378Z,68.48
2019-04-03T06:01:42.670Z,68.55
2019-04-03T06:02:41.336Z,68.14
2019-04-03T06:03:44.447Z,68.14
2019-04-03T06:04:41.734Z,68.14
2019-04-03T06:05:41.856Z,67.83
2019-04-03T06:06:40.382Z,67.29
2019-04-03T06:07:40.294Z,66.88
2019-04-03T06:08:40.274Z,66.75
2019-04-03T06:09:40.259Z,66.64
2019-04-03T06:10:40.246Z,66.54
2019-04-03T06:11:41.084Z,66.00
2019-04-03T06:12:40.226Z,64.98
2019-04-03T06:13:40.222Z,64.95
2019-04-03T06:14:40.288Z,64.33
2019-04-03T06:15:40.196Z,63.59
2019-04-03T06:16:40.373Z,63.35
2019-04-03T06:17:40.174Z,62.61
2019-04-03T06:18:40.162Z,62.30
2019-04-03T06:19:40.312Z,62.20
2019-04-03T06:20:42.518Z,62.04
2019-04-03T06:21:40.297Z,61.43
2019-04-03T06:22:40.123Z,61.09
2019-04-03T06:23:40.111Z,60.78
2019-04-03T06:24:40.101Z,59.43
2019-04-03T06:25:40.084Z,60.48
2019-04-03T06:26:40.076Z,58.89
2019-04-03T06:27:42.204Z,58.39
2019-04-03T06:28:42.449Z,58.08
2019-04-03T06:29:40.046Z,58.92
2019-04-03T06:30:40.029Z,60.00
2019-04-03T06:31:40.017Z,60.23
2019-04-03T06:32:40.049Z,59.59
2019-04-03T06:33:40.075Z,60.61
2019-04-03T06:34:42.459Z,60.10
2019-04-03T06:35:39.981Z,59.18
2019-04-03T06:36:39.965Z,60.28
2019-04-03T06:37:39.955Z,58.80
2019-04-03T06:38:39.945Z,58.36
2019-04-03T06:39:39.949Z,57.52
2019-04-03T06:40:39.938Z,56.20
2019-04-03T06:41:41.627Z,57.24
2019-04-03T06:42:39.895Z,57.75
2019-04-03T06:43:39.891Z,57.87
2019-04-03T06:44:39.877Z,57.85
2019-04-03T06:45:42.819Z,57.95
2019-04-03T06:46:40.104Z,57.11
2019-04-03T06:47:40.071Z,56.07
2019-04-03T06:48:39.829Z,56.40
2019-04-03T06:49:40.989Z,56.09
2019-04-03T06:50:39.816Z,55.99
2019-04-03T06:51:40.038Z,56.32
2019-04-03T06:52:39.809Z,56.52
2019-04-03T06:53:39.850Z,57.72
2019-04-03T06:54:39.778Z,57.95
2019-04-03T06:55:40.005Z,57.37
2019-04-03T06:56:40.836Z,58.08
2019-04-03T06:57:40.051Z,58.41
2019-04-03T06:58:40.323Z,60.00
2019-04-03T06:59:39.713Z,60.48
2019-04-03T07:00:39.702Z,59.80
2019-04-03T07:01:39.692Z,60.00
2019-04-03T07:02:39.789Z,59.39
2019-04-03T07:03:39.673Z,59.69
2019-04-03T07:04:39.673Z,59.69
2019-04-03T07:05:41.898Z,59.80
2019-04-03T07:06:39.706Z,60.48
2019-04-03T07:07:39.639Z,59.87
2019-04-03T07:08:41.060Z,59.05
2019-04-03T07:09:39.608Z,59.89
2019-04-03T07:10:40.360Z,60.21
2019-04-03T07:11:39.585Z,59.69
2019-04-03T07:12:39.660Z,60.82
2019-04-03T07:13:39.571Z,60.10
2019-04-03T07:14:39.567Z,60.53
2019-04-03T07:15:39.563Z,60.71
2019-04-03T07:16:39.528Z,59.80
2019-04-03T07:17:39.532Z,60.00
2019-04-03T07:18:39.511Z,60.85
2019-04-03T07:19:40.213Z,60.74
2019-04-03T07:20:39.715Z,61.32
2019-04-03T07:21:39.479Z,61.22
2019-04-03T07:22:39.681Z,60.82
2019-04-03T07:23:39.459Z,60.30
2019-04-03T07:24:39.452Z,59.59
2019-04-03T07:25:39.439Z,61.09
2019-04-03T07:26:39.429Z,60.38
2019-04-03T07:27:41.811Z,59.94
2019-04-03T07:28:41.627Z,60.45
2019-04-03T07:29:39.693Z,59.36
2019-04-03T07:30:39.387Z,59.97
2019-04-03T07:31:39.378Z,59.66
2019-04-03T07:32:39.365Z,59.43
2019-04-03T07:33:39.684Z,59.12
2019-04-03T07:34:39.336Z,58.69
2019-04-03T07:35:40.516Z,59.03
2019-04-03T07:36:40.927Z,58.49
2019-04-03T07:37:39.466Z,59.03
2019-04-03T07:38:39.295Z,58.89
2019-04-03T07:39:39.482Z,57.47
2019-04-03T07:40:39.277Z,57.67
2019-04-03T07:41:41.102Z,57.65
2019-04-03T07:42:39.250Z,58.33
2019-04-03T07:43:39.246Z,56.37
2019-04-03T07:44:39.433Z,57.08
2019-04-03T07:45:39.221Z,56.45
2019-04-03T07:46:39.209Z,56.34
2019-04-03T07:47:39.197Z,55.20
2019-04-03T07:48:39.318Z,54.36
2019-04-03T07:49:40.120Z,54.05
2019-04-03T07:50:39.762Z,54.05
2019-04-03T07:51:39.154Z,54.66
2019-04-03T07:52:39.182Z,54.24
2019-04-03T07:53:39.137Z,54.44
2019-04-03T07:54:39.237Z,52.89
2019-04-03T07:55:39.116Z,53.30
2019-04-03T07:56:39.109Z,53.37
2019-04-03T07:57:41.003Z,52.66
2019-04-03T07:58:39.087Z,52.03
2019-04-03T07:59:39.307Z,50.60
2019-04-03T08:00:39.271Z,50.91
2019-04-03T08:01:41.334Z,50.71
2019-04-03T08:02:39.213Z,50.81
2019-04-03T08:03:39.184Z,51.24
2019-04-03T08:04:39.017Z,51.12
2019-04-03T08:05:39.035Z,50.08
2019-04-03T08:06:39.376Z,49.73
2019-04-03T08:07:38.977Z,49.10
2019-04-03T08:08:39.541Z,49.22
2019-04-03T08:09:38.965Z,50.13
2019-04-03T08:10:38.949Z,49.30
2019-04-03T08:11:38.948Z,49.62
2019-04-03T08:12:38.932Z,49.75
2019-04-03T08:13:39.193Z,51.12
2019-04-03T08:14:39.107Z,49.95
2019-04-03T08:15:38.899Z,49.30
2019-04-03T08:16:41.666Z,48.67
2019-04-03T08:17:38.880Z,48.82
2019-04-03T08:18:38.864Z,47.83
2019-04-03T08:19:39.071Z,47.41
2019-04-03T08:20:38.846Z,47.00
2019-04-03T08:21:38.836Z,47.81
2019-04-03T08:22:39.121Z,47.06
2019-04-03T08:23:38.820Z,44.90
2019-04-03T08:24:39.732Z,45.42
2019-04-03T08:25:38.790Z,45.40
2019-04-03T08:26:38.859Z,45.32
2019-04-03T08:27:38.768Z,45.85
2019-04-03T08:28:38.762Z,47.91
2019-04-03T08:29:39.372Z,47.26
2019-04-03T08:30:39.635Z,45.34
2019-04-03T08:31:38.723Z,45.45
2019-04-03T08:32:38.717Z,48.77
2019-04-03T08:33:38.706Z,49.27
2019-04-03T08:34:38.752Z,47.31
2019-04-03T08:35:38.685Z,47.61
2019-04-03T08:36:39.811Z,47.39
2019-04-03T08:37:40.600Z,46.84
2019-04-03T08:38:38.706Z,45.75
2019-04-03T08:39:38.647Z,45.32
2019-04-03T08:40:38.642Z,45.42
2019-04-03T08:41:38.863Z,44.71
2019-04-03T08:42:38.603Z,46.17
2019-04-03T08:43:38.908Z,45.75
2019-04-03T08:44:38.796Z,45.32
2019-04-03T08:45:39.298Z,43.04
2019-04-03T08:46:38.721Z,43.57
2019-04-03T08:47:38.600Z,43.85
2019-04-03T08:48:38.538Z,44.15
2019-04-03T08:49:38.527Z,44.35
2019-04-03T08:50:38.696Z,43.52
2019-04-03T08:51:38.527Z,42.30
2019-04-03T08:52:38.527Z,42.78
2019-04-03T08:53:39.689Z,42.03
2019-04-03T08:54:41.450Z,40.79
2019-04-03T08:55:38.825Z,40.45
2019-04-03T08:56:38.462Z,39.40
2019-04-03T08:57:38.706Z,38.70
2019-04-03T08:58:38.439Z,38.32
2019-04-03T08:59:38.436Z,39.69
2019-04-03T09:00:38.418Z,39.69
2019-04-03T09:01:38.412Z,39.14
2019-04-03T09:02:38.412Z,38.76
2019-04-03T09:03:38.665Z,39.45
2019-04-03T09:04:38.381Z,40.64
2019-04-03T09:05:38.378Z,40.75
2019-04-03T09:06:38.427Z,40.73
2019-04-03T09:07:38.341Z,39.72
2019-04-03T09:08:38.332Z,39.69
2019-04-03T09:09:38.392Z,39.50
2019-04-03T09:10:38.315Z,40.28
2019-04-03T09:11:38.313Z,39.56
2019-04-03T09:12:38.947Z,37.20
2019-04-03T09:13:38.283Z,37.18
2019-04-03T09:14:38.304Z,37.48
2019-04-03T09:15:38.477Z,38.68
2019-04-03T09:16:38.257Z,41.05
2019-04-03T09:17:38.252Z,39.97
2019-04-03T09:18:38.723Z,37.82
2019-04-03T09:19:41.095Z,37.27
2019-04-03T09:20:38.222Z,37.37
2019-04-03T09:21:38.197Z,36.78
2019-04-03T09:22:38.193Z,36.50
2019-04-03T09:23:38.185Z,39.30
2019-04-03T09:24:38.161Z,38.56
2019-04-03T09:25:38.186Z,38.96
2019-04-03T09:26:38.301Z,37.40
2019-04-03T09:27:40.321Z,37.38
2019-04-03T09:28:41.403Z,37.12
2019-04-03T09:29:38.109Z,37.50
2019-04-03T09:30:38.105Z,37.72
2019-04-03T09:31:38.089Z,38.74
2019-04-03T09:32:38.079Z,39.08
2019-04-03T09:33:38.461Z,39.56
2019-04-03T09:34:38.144Z,38.74
2019-04-03T09:35:38.062Z,38.74
2019-04-03T09:36:38.037Z,38.42
2019-04-03T09:37:38.487Z,38.64
2019-04-03T09:38:40.709Z,37.22
2019-04-03T09:39:38.011Z,38.66
2019-04-03T09:40:38.313Z,39.56
2019-04-03T09:41:37.995Z,38.44
2019-04-03T09:42:37.984Z,39.30
2019-04-03T09:43:39.677Z,39.69
2019-04-03T09:44:37.961Z,38.10
2019-04-03T09:45:37.952Z,37.46
2019-04-03T09:46:37.943Z,37.16
2019-04-03T09:47:37.927Z,37.07
2019-04-03T09:48:38.033Z,36.65
2019-04-03T09:49:40.237Z,36.68
2019-04-03T09:50:37.901Z,38.64
2019-04-03T09:51:38.136Z,39.18
2019-04-03T09:52:45.000Z,39.06
2019-04-03T09:53:38.863Z,38.90
2019-04-03T09:54:37.856Z,38.40
2019-04-03T09:55:38.253Z,38.70
2019-04-03T09:56:54.896Z,37.20
2019-04-03T09:57:38.834Z,37.59
2019-04-03T09:58:37.820Z,37.34
2019-04-03T09:59:38.562Z,38.58
2019-04-03T10:00:37.795Z,38.18
2019-04-03T10:01:37.773Z,38.09
2019-04-03T10:02:37.792Z,39.50
2019-04-03T10:03:37.754Z,39.86
2019-04-03T10:04:37.752Z,39.86
2019-04-03T10:05:37.736Z,40.80
2019-04-03T10:06:37.714Z,41.29
2019-04-03T10:07:37.717Z,40.97
2019-04-03T10:08:38.057Z,40.92
2019-04-03T10:09:39.075Z,41.05
2019-04-03T10:10:37.981Z,41.87
2019-04-03T10:11:39.175Z,41.75
2019-04-03T10:12:38.014Z,41.02
2019-04-03T10:13:37.647Z,40.69
2019-04-03T10:14:37.637Z,40.26
2019-04-03T10:15:37.628Z,41.25
2019-04-03T10:16:37.610Z,41.73
2019-04-03T10:17:38.505Z,40.80
2019-04-03T10:18:40.841Z,39.94
2019-04-03T10:19:37.745Z,39.40
2019-04-03T10:20:37.724Z,38.68
2019-04-03T10:21:37.572Z,38.18
2019-04-03T10:22:37.551Z,38.58
2019-04-03T10:23:37.597Z,39.98
2019-04-03T10:24:37.588Z,39.28
2019-04-03T10:25:37.992Z,38.56
2019-04-03T10:26:39.255Z,37.62
2019-04-03T10:27:37.500Z,36.18
2019-04-03T10:28:37.757Z,35.66
2019-04-03T10:29:37.646Z,36.10
2019-04-03T10:30:37.465Z,38.76
2019-04-03T10:31:37.466Z,38.02
2019-04-03T10:32:37.450Z,37.82
2019-04-03T10:33:37.487Z,37.13
2019-04-03T10:34:37.517Z,37.32
2019-04-03T10:35:39.367Z,38.60
2019-04-03T10:36:37.447Z,38.70
2019-04-03T10:37:37.829Z,38.36
2019-04-03T10:38:37.387Z,37.17
2019-04-03T10:39:40.068Z,39.23
2019-04-03T10:40:37.584Z,39.74
2019-04-03T10:41:37.347Z,39.48
2019-04-03T10:42:37.340Z,38.78
2019-04-03T10:43:37.705Z,38.78
2019-04-03T10:44:37.318Z,37.87
2019-04-03T10:45:37.321Z,38.98
2019-04-03T10:46:37.310Z,38.49
2019-04-03T10:47:42.042Z,38.62
2019-04-03T10:48:38.278Z,39.25
2019-04-03T10:49:37.269Z,40.10
2019-04-03T10:50:38.246Z,39.90
2019-04-03T10:51:37.431Z,40.58
2019-04-03T10:52:37.235Z,40.40
2019-04-03T10:53:37.226Z,40.62
2019-04-03T10:54:38.428Z,40.50
2019-04-03T10:55:37.199Z,39.68
2019-04-03T10:56:37.189Z,39.92
2019-04-03T10:57:37.235Z,40.10
2019-04-03T10:58:38.386Z,39.76
2019-04-03T10:59:37.159Z,38.51
2019-04-03T11:00:37.149Z,38.07
2019-04-03T11:01:37.145Z,38.28
2019-04-03T11:02:37.143Z,37.47
2019-04-03T11:03:37.123Z,38.40
2019-04-03T11:04:37.320Z,38.79
2019-04-03T11:05:37.230Z,38.60
2019-04-03T11:06:37.860Z,39.12
2019-04-03T11:07:37.073Z,38.38
2019-04-03T11:08:37.071Z,37.62
2019-04-03T11:09:37.049Z,37.10
2019-04-03T11:10:37.041Z,36.82
2019-04-03T11:11:37.677Z,36.92
2019-04-03T11:12:37.023Z,38.07
2019-04-03T11:13:37.017Z,39.32
2019-04-03T11:14:39.228Z,38.90
2019-04-03T11:15:36.985Z,38.90
2019-04-03T11:16:38.647Z,39.30
2019-04-03T11:17:37.349Z,38.38
2019-04-03T11:18:37.210Z,38.32
2019-04-03T11:19:37.464Z,37.34
2019-04-03T11:20:37.210Z,37.22
2019-04-03T11:21:36.927Z,37.30
2019-04-03T11:22:42.184Z,36.66
2019-04-03T11:23:43.718Z,36.18
2019-04-03T11:24:41.642Z,37.00
2019-04-03T11:25:39.069Z,38.02
2019-04-03T11:26:37.220Z,38.36
2019-04-03T11:27:45.624Z,39.00
2019-04-03T11:28:38.632Z,39.12
2019-04-03T11:29:36.853Z,39.50
2019-04-03T11:30:36.831Z,39.69
2019-04-03T11:31:41.403Z,38.06
2019-04-03T11:32:39.177Z,38.66
2019-04-03T11:33:36.812Z,37.85
2019-04-03T11:34:36.824Z,38.07
2019-04-03T11:35:37.136Z,38.88
2019-04-03T11:36:37.017Z,38.78
2019-04-03T11:37:36.763Z,38.26
2019-04-03T11:38:36.747Z,39.08
2019-04-03T11:39:37.516Z,39.60
2019-04-03T11:40:36.822Z,39.60
2019-04-03T11:41:36.713Z,39.58
2019-04-03T11:42:36.707Z,38.28
2019-04-03T11:43:36.972Z,38.28
2019-04-03T11:44:37.067Z,39.40
2019-04-03T11:45:36.667Z,38.88
2019-04-03T11:46:36.655Z,39.80
2019-04-03T11:47:37.041Z,39.38
2019-04-03T11:48:36.824Z,38.88
2019-04-03T11:49:36.637Z,38.68
2019-04-03T11:50:38.922Z,38.86
2019-04-03T11:51:36.614Z,38.94
2019-04-03T11:52:36.605Z,38.34
2019-04-03T11:53:36.928Z,37.10
2019-04-03T11:54:38.871Z,36.72
2019-04-03T11:55:36.759Z,38.12
2019-04-03T11:56:37.022Z,37.42
2019-04-03T11:57:36.540Z,37.40
2019-04-03T11:58:36.627Z,37.30
2019-04-03T11:59:36.536Z,37.98
2019-04-03T12:00:36.506Z,37.08
2019-04-03T12:01:36.495Z,36.87
2019-04-03T12:02:36.880Z,37.07
2019-04-03T12:03:36.484Z,36.66
2019-04-03T12:04:36.460Z,37.00
2019-04-03T12:05:36.569Z,37.42
2019-04-03T12:06:36.455Z,37.42
2019-04-03T12:07:36.436Z,37.60
2019-04-03T12:08:36.427Z,37.62
2019-04-03T12:09:36.418Z,38.46
2019-04-03T12:10:36.399Z,37.85
2019-04-03T12:11:38.394Z,38.82
2019-04-03T12:12:36.378Z,37.72
2019-04-03T12:13:36.550Z,37.60
2019-04-03T12:14:36.356Z,38.00
2019-04-03T12:15:36.352Z,37.62
2019-04-03T12:16:36.333Z,37.12
2019-04-03T12:17:36.335Z,37.82
2019-04-03T12:18:36.309Z,38.53
2019-04-03T12:19:37.076Z,37.52
2019-04-03T12:20:36.495Z,38.62
2019-04-03T12:21:36.597Z,38.92
2019-04-03T12:22:36.303Z,38.42
2019-04-03T12:23:38.754Z,38.10
2019-04-03T12:24:36.287Z,38.74
2019-04-03T12:25:38.239Z,38.24
2019-04-03T12:26:36.619Z,38.07
2019-04-03T12:27:36.758Z,39.10
2019-04-03T12:28:36.273Z,39.28
2019-04-03T12:29:36.406Z,39.92
2019-04-03T12:30:36.179Z,39.40
2019-04-03T12:31:36.171Z,39.70
2019-04-03T12:32:41.007Z,40.02
2019-04-03T12:33:37.149Z,40.22
2019-04-03T12:34:37.235Z,39.92
2019-04-03T12:35:36.290Z,39.92
2019-04-03T12:36:36.117Z,39.22
2019-04-03T12:37:36.107Z,39.42
2019-04-03T12:38:36.387Z,39.90
2019-04-03T12:39:36.249Z,39.78
2019-04-03T12:40:36.066Z,39.38
2019-04-03T12:41:37.221Z,39.58
2019-04-03T12:42:36.061Z,38.88
2019-04-03T12:43:36.177Z,38.48
2019-04-03T12:44:36.034Z,39.18
2019-04-03T12:45:36.032Z,39.58
2019-04-03T12:46:36.011Z,39.78
2019-04-03T12:47:36.132Z,39.50
2019-04-03T12:48:35.989Z,39.38
2019-04-03T12:49:35.980Z,39.36
2019-04-03T12:50:36.002Z,39.48
2019-04-03T12:51:35.954Z,39.36
2019-04-03T12:52:35.939Z,39.56